createdAt,value
2022-12-03T00:00:52.595Z,100680.16
2022-12-03T00:03:20.484Z,100678.00
2022-12-03T00:05:49.603Z,100680.44
2022-12-03T00:08:17.766Z,100680.44
2022-12-03T00:10:45.499Z,100676.22
2022-12-03T00:13:13.194Z,100678.03
2022-12-03T00:15:40.877Z,100685.25
2022-12-03T00:18:08.619Z,100679.13
2022-12-03T00:20:36.297Z,100680.97
2022-12-03T00:23:05.419Z,100682.72
2022-12-03T00:25:33.146Z,100680.00
2022-12-03T00:28:00.882Z,100680.91
2022-12-03T00:30:28.564Z,100672.19
2022-12-03T00:32:56.400Z,100673.22
2022-12-03T00:35:24.227Z,100671.38
2022-12-03T00:37:51.903Z,100666.63
2022-12-03T00:40:20.993Z,100668.53
2022-12-03T00:42:49.839Z,100667.66
2022-12-03T00:45:17.699Z,100664.25
2022-12-03T00:47:45.479Z,100657.41
2022-12-03T00:50:14.397Z,100661.72
2022-12-03T00:52:42.099Z,100655.34
2022-12-03T00:55:10.518Z,100656.00
2022-12-03T00:57:39.600Z,100647.56
2022-12-03T01:00:09.023Z,100656.00
2022-12-03T01:02:36.947Z,100661.44
2022-12-03T01:05:05.159Z,100653.44
2022-12-03T01:07:33.117Z,100662.19
2022-12-03T01:10:00.878Z,100670.47
2022-12-03T01:12:28.608Z,100670.66
2022-12-03T01:14:57.654Z,100669.88
2022-12-03T01:17:25.436Z,100673.34
2022-12-03T01:19:53.265Z,100667.25
2022-12-03T01:22:21.041Z,100667.19
2022-12-03T01:24:48.829Z,100663.88
2022-12-03T01:27:16.552Z,100675.25
2022-12-03T01:29:44.296Z,100680.50
2022-12-03T01:32:19.339Z,100682.16
2022-12-03T01:34:48.107Z,100683.25
2022-12-03T01:37:16.160Z,100685.75
2022-12-03T01:39:44.477Z,100681.34
2022-12-03T01:42:16.324Z,100682.41
2022-12-03T01:44:45.184Z,100680.63
2022-12-03T01:47:17.770Z,100679.91
2022-12-03T01:49:49.259Z,100680.81
2022-12-03T01:52:20.161Z,100678.22
2022-12-03T01:54:51.532Z,100675.56
2022-12-03T01:57:22.694Z,100679.22
2022-12-03T01:59:50.953Z,100685.88
2022-12-03T02:02:23.765Z,100680.56
2022-12-03T02:04:53.303Z,100685.16
2022-12-03T02:07:24.474Z,100687.56
2022-12-03T02:09:52.691Z,100682.09
2022-12-03T02:12:24.052Z,100681.50
2022-12-03T02:14:52.389Z,100688.53
2022-12-03T02:17:21.726Z,100683.75
2022-12-03T02:19:49.975Z,100686.56
2022-12-03T02:22:32.125Z,100692.59
2022-12-03T02:25:12.321Z,100690.81
2022-12-03T02:27:40.255Z,100685.75
2022-12-03T02:30:09.432Z,100682.09
2022-12-03T02:32:38.575Z,100687.41
2022-12-03T02:35:07.673Z,100694.50
2022-12-03T02:37:38.324Z,100675.06
2022-12-03T02:40:11.568Z,100675.97
2022-12-03T02:42:39.336Z,100683.00
2022-12-03T02:45:11.267Z,100676.66
2022-12-03T02:47:44.043Z,100681.72
2022-12-03T02:50:14.919Z,100682.66
2022-12-03T02:52:45.125Z,100679.28
2022-12-03T02:55:16.025Z,100674.81
2022-12-03T02:57:46.390Z,100678.44
2022-12-03T03:00:15.532Z,100681.13
2022-12-03T03:02:44.050Z,100677.50
2022-12-03T03:05:12.980Z,100679.22
2022-12-03T03:07:41.513Z,100682.50
2022-12-03T03:10:13.063Z,100688.56
2022-12-03T03:12:42.437Z,100678.34
2022-12-03T03:15:12.493Z,100681.78
2022-12-03T03:17:40.426Z,100682.91
2022-12-03T03:20:10.143Z,100675.00
2022-12-03T03:22:40.320Z,100677.56
2022-12-03T03:25:11.100Z,100675.63
2022-12-03T03:27:39.936Z,100674.94
2022-12-03T03:30:10.970Z,100671.41
2022-12-03T03:32:40.608Z,100676.66
2022-12-03T03:35:09.943Z,100689.97
2022-12-03T03:37:38.053Z,100677.69
2022-12-03T03:40:07.353Z,100679.09
2022-12-03T03:42:36.026Z,100676.31
2022-12-03T03:45:04.103Z,100675.97
2022-12-03T03:47:33.667Z,100679.59
2022-12-03T03:50:01.981Z,100678.00
2022-12-03T03:52:30.378Z,100679.00
2022-12-03T03:54:58.375Z,100679.03
2022-12-03T03:57:26.332Z,100677.25
2022-12-03T03:59:54.295Z,100676.31
2022-12-03T04:02:25.564Z,100676.78
2022-12-03T04:04:55.813Z,100673.00
2022-12-03T04:07:23.761Z,100674.03
2022-12-03T04:09:51.682Z,100671.47
2022-12-03T04:12:36.828Z,100666.16
2022-12-03T04:15:05.410Z,100665.41
2022-12-03T04:17:33.383Z,100669.78
2022-12-03T04:20:02.661Z,100668.09
2022-12-03T04:22:41.725Z,100673.44
2022-12-03T04:25:29.079Z,100668.09
2022-12-03T04:28:14.455Z,100659.31
2022-12-03T04:30:42.467Z,100661.19
2022-12-03T04:33:27.999Z,100662.97
2022-12-03T04:35:57.266Z,100669.22
2022-12-03T04:38:25.143Z,100661.09
2022-12-03T04:41:07.913Z,100656.69
2022-12-03T04:43:56.175Z,100657.53
2022-12-03T04:46:24.180Z,100659.41
2022-12-03T04:48:52.140Z,100651.53
2022-12-03T04:51:21.362Z,100656.09
2022-12-03T04:53:49.301Z,100647.28
2022-12-03T04:56:17.070Z,100648.91
2022-12-03T04:58:44.895Z,100651.63
2022-12-03T05:01:12.870Z,100647.41
2022-12-03T05:03:40.933Z,100650.94
2022-12-03T05:06:09.189Z,100645.78
2022-12-03T05:08:38.501Z,100642.31
2022-12-03T05:11:06.579Z,100639.53
2022-12-03T05:13:34.479Z,100638.66
2022-12-03T05:16:02.499Z,100646.44
2022-12-03T05:18:30.595Z,100637.88
2022-12-03T05:20:57.439Z,100647.72
2022-12-03T05:23:26.116Z,100642.31
2022-12-03T05:25:55.593Z,100644.06
2022-12-03T05:28:24.350Z,100643.16
2022-12-03T05:30:52.461Z,100645.16
2022-12-03T05:33:20.609Z,100643.56
2022-12-03T05:35:48.976Z,100644.22
2022-12-03T05:38:16.915Z,100649.31
2022-12-03T05:40:45.394Z,100644.16
2022-12-03T05:43:13.855Z,100642.28
2022-12-03T05:45:44.234Z,100646.00
2022-12-03T05:48:14.728Z,100638.06
2022-12-03T05:50:45.437Z,100643.00
2022-12-03T05:53:13.843Z,100644.91
2022-12-03T05:55:41.706Z,100642.50
2022-12-03T05:58:09.652Z,100647.78
2022-12-03T06:00:42.724Z,100641.59
2022-12-03T06:03:11.762Z,100637.31
2022-12-03T06:05:39.732Z,100642.72
2022-12-03T06:08:07.650Z,100637.38
2022-12-03T06:10:35.631Z,100637.56
2022-12-03T06:13:03.565Z,100633.25
2022-12-03T06:15:31.573Z,100638.31
2022-12-03T06:18:00.978Z,100629.56
2022-12-03T06:20:28.828Z,100637.63
2022-12-03T06:22:56.807Z,100634.19
2022-12-03T06:25:24.771Z,100631.81
2022-12-03T06:27:52.626Z,100625.47
2022-12-03T06:30:20.717Z,100629.00
2022-12-03T06:32:48.620Z,100619.38
2022-12-03T06:35:17.956Z,100621.44
2022-12-03T06:37:45.776Z,100612.69
2022-12-03T06:40:14.730Z,100609.28
2022-12-03T06:42:42.544Z,100615.41
2022-12-03T06:45:11.134Z,100617.94
2022-12-03T06:47:39.070Z,100628.38
2022-12-03T06:50:08.629Z,100627.41
2022-12-03T06:52:37.939Z,100629.31
2022-12-03T06:55:06.730Z,100625.91
2022-12-03T06:57:34.566Z,100625.75
2022-12-03T07:00:02.482Z,100628.44
2022-12-03T07:02:30.493Z,100633.69
2022-12-03T07:04:58.694Z,100634.44
2022-12-03T07:07:26.768Z,100633.84
2022-12-03T07:09:56.024Z,100634.72
2022-12-03T07:12:23.884Z,100641.66
2022-12-03T07:14:52.154Z,100647.63
2022-12-03T07:17:20.397Z,100651.97
2022-12-03T07:19:48.242Z,100654.47
2022-12-03T07:22:16.183Z,100651.91
2022-12-03T07:24:44.108Z,100657.28
2022-12-03T07:27:13.333Z,100656.38
2022-12-03T07:29:41.248Z,100657.03
2022-12-03T07:32:09.095Z,100657.81
2022-12-03T07:34:37.048Z,100656.88
2022-12-03T07:37:04.941Z,100653.31
2022-12-03T07:39:32.782Z,100657.72
2022-12-03T07:42:01.274Z,100657.97
2022-12-03T07:44:31.720Z,100652.63
2022-12-03T07:47:01.127Z,100653.44
2022-12-03T07:49:29.027Z,100652.75
2022-12-03T07:51:57.290Z,100650.94
2022-12-03T07:54:25.288Z,100650.88
2022-12-03T07:56:59.590Z,100653.25
2022-12-03T07:59:30.649Z,100649.66
2022-12-03T08:01:58.514Z,100656.94
2022-12-03T08:04:26.438Z,100660.28
2022-12-03T08:06:54.282Z,100652.34
2022-12-03T08:09:22.503Z,100654.91
2022-12-03T08:11:51.124Z,100656.69
2022-12-03T08:14:20.759Z,100661.00
2022-12-03T08:16:50.119Z,100647.03
2022-12-03T08:19:19.108Z,100653.03
2022-12-03T08:21:47.024Z,100653.81
2022-12-03T08:24:16.499Z,100651.50
2022-12-03T08:26:45.652Z,100644.59
2022-12-03T08:29:15.618Z,100643.75
2022-12-03T08:31:43.954Z,100641.97
2022-12-03T08:34:19.133Z,100643.66
2022-12-03T08:36:47.561Z,100648.66
2022-12-03T08:39:30.671Z,100644.22
2022-12-03T08:42:24.500Z,100653.75
2022-12-03T08:44:52.923Z,100655.41
2022-12-03T08:47:22.950Z,100648.13
2022-12-03T08:49:58.165Z,100650.63
2022-12-03T08:52:32.671Z,100652.41
2022-12-03T08:55:03.897Z,100642.44
2022-12-03T08:57:33.860Z,100645.25
2022-12-03T09:00:07.773Z,100643.56
2022-12-03T09:02:36.033Z,100636.22
2022-12-03T09:05:17.260Z,100637.84
2022-12-03T09:07:45.156Z,100627.88
2022-12-03T09:10:13.117Z,100625.19
2022-12-03T09:12:40.963Z,100624.34
2022-12-03T09:15:09.720Z,100632.28
2022-12-03T09:17:38.513Z,100636.50
2022-12-03T09:20:09.606Z,100635.34
2022-12-03T09:22:37.568Z,100638.69
2022-12-03T09:25:06.089Z,100643.00
2022-12-03T09:27:33.983Z,100634.28
2022-12-03T09:30:01.823Z,100640.06
2022-12-03T09:32:29.777Z,100637.06
2022-12-03T09:34:57.715Z,100633.56
2022-12-03T09:37:26.993Z,100630.59
2022-12-03T09:39:54.860Z,100630.59
2022-12-03T09:42:22.854Z,100633.91
2022-12-03T09:44:50.850Z,100641.78
2022-12-03T09:47:19.207Z,100643.63
2022-12-03T09:49:47.386Z,100641.63
2022-12-03T09:52:21.667Z,100639.88
2022-12-03T09:54:51.673Z,100635.22
2022-12-03T09:57:20.301Z,100637.50
2022-12-03T09:59:48.408Z,100626.03
2022-12-03T10:02:22.164Z,100623.22
2022-12-03T10:04:50.912Z,100615.97
2022-12-03T10:07:19.047Z,100616.47
2022-12-03T10:09:47.004Z,100612.00
2022-12-03T10:12:22.152Z,100623.19
2022-12-03T10:14:50.519Z,100612.44
2022-12-03T10:17:18.602Z,100602.63
2022-12-03T10:19:46.474Z,100603.41
2022-12-03T10:22:15.722Z,100606.84
2022-12-03T10:24:44.790Z,100605.53
2022-12-03T10:27:25.347Z,100594.59
2022-12-03T10:29:57.969Z,100596.44
2022-12-03T10:32:27.413Z,100595.88
2022-12-03T10:35:09.038Z,100591.88
2022-12-03T10:37:36.857Z,100585.75
2022-12-03T10:40:08.340Z,100589.28
2022-12-03T10:42:39.389Z,100576.06
2022-12-03T10:45:10.356Z,100579.28
2022-12-03T10:47:38.441Z,100572.22
2022-12-03T10:50:15.390Z,100569.28
2022-12-03T10:52:43.352Z,100567.19
2022-12-03T10:55:13.180Z,100568.22
2022-12-03T10:57:45.985Z,100561.31
2022-12-03T11:00:18.080Z,100555.56
2022-12-03T11:02:50.372Z,100551.56
2022-12-03T11:05:27.283Z,100547.47
2022-12-03T11:07:56.299Z,100536.69
2022-12-03T11:10:24.697Z,100535.06
2022-12-03T11:13:30.182Z,100533.97
2022-12-03T11:15:59.684Z,100530.63
2022-12-03T11:19:02.348Z,100535.16
2022-12-03T11:21:31.293Z,100529.88
2022-12-03T11:24:21.538Z,100524.59
2022-12-03T11:27:22.288Z,100528.69
2022-12-03T11:29:58.770Z,100530.47
2022-12-03T11:33:06.225Z,100525.44
2022-12-03T11:36:31.807Z,100525.44
2022-12-03T11:39:09.660Z,100520.50
2022-12-03T11:41:37.460Z,100521.09
2022-12-03T11:44:30.748Z,100529.16
2022-12-03T11:47:00.295Z,100517.84
2022-12-03T11:49:48.186Z,100513.22
2022-12-03T11:52:28.764Z,100512.13
2022-12-03T11:55:02.822Z,100514.75
2022-12-03T11:57:34.668Z,100507.16
2022-12-03T12:00:10.501Z,100506.91
2022-12-03T12:02:38.268Z,100508.59
2022-12-03T12:05:20.588Z,100503.03
2022-12-03T12:07:48.775Z,100502.19
2022-12-03T12:10:40.212Z,100495.59
2022-12-03T12:13:25.893Z,100486.41
2022-12-03T12:15:54.351Z,100491.56
2022-12-03T12:18:39.992Z,100490.66
2022-12-03T12:21:42.716Z,100476.00
2022-12-03T12:24:33.379Z,100477.78
2022-12-03T12:27:06.446Z,100479.41
2022-12-03T12:29:34.709Z,100480.31
2022-12-03T12:32:13.638Z,100472.53
2022-12-03T12:34:43.011Z,100472.22
2022-12-03T12:37:13.645Z,100459.63
2022-12-03T12:39:41.726Z,100451.13
2022-12-03T12:42:30.105Z,100455.44
2022-12-03T12:45:02.155Z,100455.56
2022-12-03T12:47:31.815Z,100454.91
2022-12-03T12:49:59.874Z,100450.56
2022-12-03T12:52:28.801Z,100449.78
2022-12-03T12:54:59.084Z,100455.75
2022-12-03T12:57:32.592Z,100449.66
2022-12-03T13:00:00.431Z,100451.28
2022-12-03T13:02:40.948Z,100451.19
2022-12-03T13:05:13.178Z,100446.50
2022-12-03T13:07:43.204Z,100446.06
2022-12-03T13:10:29.034Z,100446.94
2022-12-03T13:12:58.780Z,100448.03
2022-12-03T13:15:43.948Z,100442.97
2022-12-03T13:18:22.766Z,100444.69
2022-12-03T13:20:50.472Z,100441.44
2022-12-03T13:23:30.056Z,100447.06
2022-12-03T13:26:06.346Z,100444.53
2022-12-03T13:28:42.941Z,100440.19
2022-12-03T13:31:23.557Z,100444.31
2022-12-03T13:33:52.219Z,100440.97
2022-12-03T13:36:22.527Z,100434.31
2022-12-03T13:38:50.556Z,100429.97
2022-12-03T13:41:39.784Z,100429.28
2022-12-03T13:44:27.578Z,100430.59
2022-12-03T13:46:55.271Z,100419.06
2022-12-03T13:49:25.069Z,100422.69
2022-12-03T13:51:53.008Z,100426.31
2022-12-03T13:54:23.712Z,100418.09
2022-12-03T13:56:51.577Z,100420.06
2022-12-03T13:59:24.494Z,100424.78
2022-12-03T14:01:55.184Z,100424.56
2022-12-03T14:04:22.886Z,100417.75
2022-12-03T14:06:50.613Z,100417.75
2022-12-03T14:09:18.360Z,100410.63
2022-12-03T14:12:03.821Z,100419.19
2022-12-03T14:14:31.582Z,100414.69
2022-12-03T14:17:00.708Z,100420.28
2022-12-03T14:19:28.501Z,100411.53
2022-12-03T14:21:56.224Z,100417.66
2022-12-03T14:24:24.037Z,100408.59
2022-12-03T14:26:51.731Z,100406.91
2022-12-03T14:29:19.476Z,100407.69
2022-12-03T14:31:47.240Z,100398.50
2022-12-03T14:34:16.346Z,100408.13
2022-12-03T14:36:44.209Z,100412.69
2022-12-03T14:39:11.898Z,100413.72
2022-12-03T14:41:57.281Z,100416.56
2022-12-03T14:44:25.319Z,100422.78
2022-12-03T14:46:56.997Z,100423.53
2022-12-03T14:49:26.886Z,100430.38
2022-12-03T14:51:54.606Z,100423.22
2022-12-03T14:54:22.876Z,100429.41
2022-12-03T14:56:50.646Z,100430.38
2022-12-03T14:59:20.704Z,100421.50
2022-12-03T15:01:52.282Z,100422.47
2022-12-03T15:04:20.212Z,100421.63
2022-12-03T15:06:49.315Z,100426.88
2022-12-03T15:09:17.068Z,100433.00
2022-12-03T15:11:46.595Z,100429.53
2022-12-03T15:14:14.676Z,100425.94
2022-12-03T15:16:42.460Z,100425.16
2022-12-03T15:19:10.238Z,100420.75
2022-12-03T15:21:37.966Z,100423.47
2022-12-03T15:24:07.879Z,100426.13
2022-12-03T15:26:35.613Z,100431.97
2022-12-03T15:29:03.292Z,100432.22
2022-12-03T15:31:31.181Z,100433.31
2022-12-03T15:33:58.901Z,100428.09
2022-12-03T15:36:26.651Z,100424.78
2022-12-03T15:38:54.428Z,100430.28
2022-12-03T15:41:28.739Z,100427.72
2022-12-03T15:43:58.023Z,100426.88
2022-12-03T15:46:27.829Z,100419.75
2022-12-03T15:48:56.101Z,100424.78
2022-12-03T15:51:24.122Z,100420.66
2022-12-03T15:53:51.825Z,100422.44
2022-12-03T15:56:19.599Z,100418.91
2022-12-03T15:58:48.855Z,100418.97
2022-12-03T16:01:18.305Z,100418.97
2022-12-03T16:03:46.581Z,100414.78
2022-12-03T16:06:14.821Z,100415.81
2022-12-03T16:08:42.560Z,100410.53
2022-12-03T16:11:10.492Z,100407.13
2022-12-03T16:13:38.445Z,100406.34
2022-12-03T16:16:08.105Z,100412.28
2022-12-03T16:18:36.333Z,100410.59
2022-12-03T16:21:04.071Z,100415.09
2022-12-03T16:23:31.872Z,100412.53
2022-12-03T16:25:59.626Z,100417.84
2022-12-03T16:28:27.355Z,100418.88
2022-12-03T16:30:55.190Z,100419.72
2022-12-03T16:33:27.800Z,100424.06
2022-12-03T16:35:55.935Z,100419.66
2022-12-03T16:38:23.935Z,100425.75
2022-12-03T16:40:51.753Z,100424.00
2022-12-03T16:43:19.595Z,100421.50
2022-12-03T16:46:01.239Z,100422.28
2022-12-03T16:48:31.071Z,100414.44
2022-12-03T16:50:58.757Z,100418.88
2022-12-03T16:53:26.459Z,100414.44
2022-12-03T16:55:54.192Z,100417.25
2022-12-03T16:58:22.145Z,100411.03
2022-12-03T17:00:50.634Z,100405.25
2022-12-03T17:03:18.539Z,100404.47
2022-12-03T17:05:47.930Z,100409.66
2022-12-03T17:08:16.977Z,100405.25
2022-12-03T17:10:44.886Z,100401.75
2022-12-03T17:13:12.788Z,100408.72
2022-12-03T17:15:41.490Z,100401.84
2022-12-03T17:18:10.075Z,100394.00
2022-12-03T17:20:38.303Z,100399.13
2022-12-03T17:23:07.346Z,100394.94
2022-12-03T17:25:35.408Z,100400.09
2022-12-03T17:28:03.491Z,100397.56
2022-12-03T17:30:31.212Z,100397.56
2022-12-03T17:32:58.847Z,100393.22
2022-12-03T17:35:26.776Z,100393.47
2022-12-03T17:37:54.571Z,100390.59
2022-12-03T17:40:24.548Z,100389.75
2022-12-03T17:42:52.197Z,100389.81
2022-12-03T17:45:19.951Z,100393.28
2022-12-03T17:47:47.744Z,100390.84
2022-12-03T17:50:15.469Z,100388.19
2022-12-03T17:52:43.385Z,100395.16
2022-12-03T17:55:15.730Z,100382.16
2022-12-03T17:57:47.043Z,100394.44
2022-12-03T18:00:15.197Z,100381.28
2022-12-03T18:02:43.197Z,100380.38
2022-12-03T18:05:11.506Z,100375.81
2022-12-03T18:07:39.307Z,100375.81
2022-12-03T18:10:08.784Z,100366.06
2022-12-03T18:12:36.465Z,100369.97
2022-12-03T18:15:06.258Z,100373.38
2022-12-03T18:17:34.003Z,100370.84
2022-12-03T18:20:01.702Z,100373.56
2022-12-03T18:22:29.888Z,100373.56
2022-12-03T18:24:57.815Z,100372.00
2022-12-03T18:27:25.798Z,100373.50
2022-12-03T18:29:53.719Z,100371.78
2022-12-03T18:32:30.426Z,100371.69
2022-12-03T18:34:59.098Z,100365.50
2022-12-03T18:37:29.689Z,100365.59
2022-12-03T18:39:58.635Z,100368.28
2022-12-03T18:42:26.613Z,100373.50
2022-12-03T18:44:56.320Z,100375.34
2022-12-03T18:47:27.948Z,100366.56
2022-12-03T18:49:56.902Z,100363.28
2022-12-03T18:52:25.916Z,100364.13
2022-12-03T18:54:54.431Z,100360.53
2022-12-03T18:57:22.256Z,100363.09
2022-12-03T18:59:50.015Z,100363.16
2022-12-03T19:05:11.146Z,100368.44
2022-12-03T19:07:39.028Z,100368.28
2022-12-03T19:10:08.742Z,100356.34
2022-12-03T19:12:36.664Z,100361.47
2022-12-03T19:15:05.972Z,100357.38
2022-12-03T19:17:34.129Z,100353.88
2022-12-03T19:20:01.946Z,100361.53
2022-12-03T19:22:31.416Z,100358.00
2022-12-03T19:24:59.158Z,100363.34
2022-12-03T19:27:26.912Z,100357.91
2022-12-03T19:29:55.033Z,100358.97
2022-12-03T19:32:23.188Z,100373.00
2022-12-03T19:34:51.003Z,100367.81
2022-12-03T19:37:18.767Z,100364.34
2022-12-03T19:39:47.926Z,100353.81
2022-12-03T19:42:15.821Z,100366.88
2022-12-03T19:44:43.502Z,100354.50
2022-12-03T19:47:11.260Z,100364.13
2022-12-03T19:49:39.131Z,100365.19
2022-12-03T19:52:06.848Z,100355.50
2022-12-03T19:54:34.655Z,100366.03
2022-12-03T19:57:03.813Z,100356.53
2022-12-03T19:59:31.570Z,100358.22
2022-12-03T20:01:59.508Z,100358.22
2022-12-03T20:04:27.483Z,100359.09
2022-12-03T20:06:55.276Z,100365.19
2022-12-03T20:09:23.141Z,100369.50
2022-12-03T20:11:52.261Z,100366.03
2022-12-03T20:14:21.956Z,100364.25
2022-12-03T20:16:50.197Z,100358.31
2022-12-03T20:19:18.712Z,100352.81
2022-12-03T20:21:46.441Z,100351.03
2022-12-03T20:24:16.522Z,100358.00
2022-12-03T20:26:44.440Z,100343.19
2022-12-03T20:29:12.258Z,100347.56
2022-12-03T20:31:41.773Z,100348.56
2022-12-03T20:34:10.912Z,100353.66
2022-12-03T20:36:39.353Z,100351.97
2022-12-03T20:39:08.457Z,100343.19
2022-12-03T20:41:37.103Z,100334.47
2022-12-03T20:44:06.049Z,100337.88
2022-12-03T20:46:34.170Z,100337.03
2022-12-03T20:49:03.441Z,100339.78
2022-12-03T20:51:32.805Z,100344.16
2022-12-03T20:54:01.265Z,100344.22
2022-12-03T20:56:31.549Z,100338.81
2022-12-03T20:59:01.000Z,100324.00
2022-12-03T21:01:29.114Z,100336.31
2022-12-03T21:03:58.402Z,100334.47
2022-12-03T21:06:30.005Z,100338.03
2022-12-03T21:08:59.284Z,100334.47
2022-12-03T21:11:30.846Z,100334.47
2022-12-03T21:13:59.667Z,100340.66
2022-12-03T21:16:59.375Z,100339.78
2022-12-03T21:19:18.346Z,100333.69
2022-12-03T21:21:47.607Z,100334.53
2022-12-03T21:24:15.863Z,100333.63
2022-12-03T21:26:43.945Z,100327.34
2022-12-03T21:29:11.805Z,100323.69
2022-12-03T21:31:40.078Z,100323.88
2022-12-03T21:34:08.851Z,100319.38
2022-12-03T21:36:36.741Z,100323.69
2022-12-03T21:39:06.494Z,100317.66
2022-12-03T21:41:35.131Z,100311.50
2022-12-03T21:44:03.224Z,100316.22
2022-12-03T21:47:09.406Z,100322.31
2022-12-03T21:49:20.337Z,100317.19
2022-12-03T21:51:48.092Z,100319.06
2022-12-03T21:54:17.162Z,100320.91
2022-12-03T21:56:44.928Z,100312.94
2022-12-03T21:59:12.651Z,100321.69
2022-12-03T22:01:44.129Z,100326.94
2022-12-03T22:04:14.775Z,100320.84
2022-12-03T22:06:42.548Z,100328.66
2022-12-03T22:09:10.321Z,100333.16
2022-12-03T22:11:39.419Z,100325.31
2022-12-03T22:14:08.254Z,100327.25
2022-12-03T22:16:36.377Z,100325.38
2022-12-03T22:19:04.804Z,100335.13
2022-12-03T22:21:32.550Z,100320.38
2022-12-03T22:24:00.242Z,100314.16
2022-12-03T22:26:28.005Z,100311.47
2022-12-03T22:28:57.106Z,100317.50
2022-12-03T22:31:24.890Z,100320.97
2022-12-03T22:33:52.701Z,100317.44
2022-12-03T22:36:21.773Z,100320.38
2022-12-03T22:38:50.094Z,100321.28
2022-12-03T22:41:18.740Z,100323.13
2022-12-03T22:43:47.016Z,100317.09
2022-12-03T22:46:16.994Z,100324.06
2022-12-03T22:48:47.096Z,100324.91
2022-12-03T22:51:16.814Z,100319.66
2022-12-03T22:53:44.628Z,100314.31
2022-12-03T22:56:12.420Z,100313.56
2022-12-03T22:58:41.331Z,100310.91
2022-12-03T23:01:09.364Z,100308.28
2022-12-03T23:03:38.714Z,100302.19
2022-12-03T23:06:11.037Z,100288.09
2022-12-03T23:08:39.156Z,100288.34
2022-12-03T23:11:07.609Z,100286.63
2022-12-03T23:13:35.380Z,100279.66
2022-12-03T23:16:03.820Z,100267.50
2022-12-03T23:18:31.701Z,100269.16
2022-12-03T23:21:00.758Z,100265.81
2022-12-03T23:23:29.341Z,100263.19
2022-12-03T23:25:58.502Z,100259.59
2022-12-03T23:28:26.522Z,100266.03
2022-12-03T23:30:54.519Z,100276.41
2022-12-03T23:33:23.004Z,100282.72
2022-12-03T23:35:50.939Z,100291.69
2022-12-03T23:38:20.287Z,100288.22
2022-12-03T23:40:48.561Z,100287.28
2022-12-03T23:43:16.498Z,100284.66
2022-12-03T23:45:44.325Z,100280.09
2022-12-03T23:48:12.613Z,100269.75
2022-12-03T23:50:41.309Z,100266.25
2022-12-03T23:53:09.249Z,100268.75
2022-12-03T23:55:41.443Z,100275.06
2022-12-03T23:58:09.279Z,100267.13
